createdAt,value
2022-09-16T00:01:22.836Z,13.90
2022-09-16T00:03:55.528Z,13.90
2022-09-16T00:06:26.068Z,13.90
2022-09-16T00:08:56.383Z,13.90
2022-09-16T00:11:24.801Z,13.90
2022-09-16T00:13:52.913Z,14.00
2022-09-16T00:16:24.148Z,13.90
2022-09-16T00:18:55.455Z,14.00
2022-09-16T00:21:23.647Z,14.00
2022-09-16T00:23:52.119Z,14.00
2022-09-16T00:26:20.545Z,14.00
2022-09-16T00:28:50.724Z,14.10
2022-09-16T00:31:18.967Z,14.10
2022-09-16T00:33:48.687Z,14.00
2022-09-16T00:36:18.553Z,14.00
2022-09-16T00:38:46.772Z,14.10
2022-09-16T00:41:22.250Z,14.00
2022-09-16T00:43:53.417Z,14.00
2022-09-16T00:46:27.216Z,13.90
2022-09-16T00:48:57.531Z,14.00
2022-09-16T00:51:26.101Z,14.00
2022-09-16T00:54:00.311Z,14.00
2022-09-16T00:56:35.219Z,14.00
2022-09-16T00:59:08.445Z,14.00
2022-09-16T01:01:36.882Z,14.00
2022-09-16T01:04:12.930Z,14.00
2022-09-16T01:06:41.614Z,14.00
2022-09-16T01:09:09.837Z,14.00
2022-09-16T01:11:37.849Z,14.00
2022-09-16T01:14:25.300Z,13.90
2022-09-16T01:17:00.762Z,13.90
2022-09-16T01:19:49.585Z,13.90
2022-09-16T01:22:35.339Z,13.90
2022-09-16T01:25:11.794Z,13.90
2022-09-16T01:28:10.130Z,14.00
2022-09-16T01:31:02.417Z,14.00
2022-09-16T01:33:39.194Z,14.00
2022-09-16T01:36:24.480Z,14.00
2022-09-16T01:39:10.412Z,13.90
2022-09-16T01:41:47.929Z,13.90
2022-09-16T01:44:25.805Z,13.90
2022-09-16T01:47:03.386Z,13.90
2022-09-16T01:49:41.639Z,13.90
2022-09-16T01:52:21.251Z,13.90
2022-09-16T01:54:57.564Z,13.90
2022-09-16T01:57:33.493Z,13.90
2022-09-16T02:00:06.632Z,13.90
2022-09-16T02:02:41.689Z,13.80
2022-09-16T02:05:14.937Z,13.90
2022-09-16T02:07:48.706Z,13.90
2022-09-16T02:10:24.449Z,13.90
2022-09-16T02:12:55.638Z,13.80
2022-09-16T02:15:25.748Z,13.80
2022-09-16T02:18:00.611Z,13.80
2022-09-16T02:20:31.624Z,13.80
2022-09-16T02:23:04.766Z,13.90
2022-09-16T02:25:36.829Z,13.90
2022-09-16T02:28:12.662Z,13.90
2022-09-16T02:30:45.621Z,13.90
2022-09-16T02:33:17.499Z,14.00
2022-09-16T02:35:50.003Z,13.90
2022-09-16T02:38:23.689Z,14.00
2022-09-16T02:40:55.271Z,14.00
2022-09-16T02:43:24.120Z,14.00
2022-09-16T02:46:01.031Z,14.00
2022-09-16T02:48:41.863Z,14.00
2022-09-16T02:51:19.665Z,14.00
2022-09-16T02:53:53.086Z,14.00
2022-09-16T02:56:25.909Z,13.90
2022-09-16T02:58:54.105Z,13.90
2022-09-16T03:01:24.375Z,13.90
2022-09-16T03:03:55.864Z,13.90
2022-09-16T03:06:25.687Z,13.90
2022-09-16T03:08:57.067Z,13.90
2022-09-16T03:11:39.776Z,13.90
2022-09-16T03:14:39.691Z,13.90
2022-09-16T03:17:20.550Z,13.90
2022-09-16T03:19:58.393Z,13.90
2022-09-16T03:22:37.352Z,13.80
2022-09-16T03:25:15.272Z,13.80
2022-09-16T03:27:48.515Z,13.80
2022-09-16T03:30:16.765Z,13.80
2022-09-16T03:32:50.022Z,13.80
2022-09-16T03:35:25.819Z,13.70
2022-09-16T03:37:56.293Z,13.70
2022-09-16T03:40:25.638Z,13.60
2022-09-16T03:42:57.669Z,13.60
2022-09-16T03:45:26.047Z,13.60
2022-09-16T03:47:55.100Z,13.60
2022-09-16T03:50:24.464Z,13.60
2022-09-16T03:52:55.633Z,13.50
2022-09-16T03:55:23.679Z,13.60
2022-09-16T03:57:54.370Z,13.50
2022-09-16T04:00:23.081Z,13.40
2022-09-16T04:02:51.094Z,13.40
2022-09-16T04:05:19.135Z,13.40
2022-09-16T04:07:49.847Z,13.40
2022-09-16T04:10:18.090Z,13.40
2022-09-16T04:12:46.143Z,13.40
2022-09-16T04:15:16.855Z,13.40
2022-09-16T04:17:44.917Z,13.30
2022-09-16T04:20:12.854Z,13.30
2022-09-16T04:22:40.855Z,13.30
2022-09-16T04:25:11.243Z,13.20
2022-09-16T04:27:39.267Z,13.20
2022-09-16T04:30:08.329Z,13.20
2022-09-16T04:32:36.315Z,13.20
2022-09-16T04:35:04.416Z,13.10
2022-09-16T04:37:32.698Z,13.10
2022-09-16T04:40:04.505Z,13.10
2022-09-16T04:42:34.509Z,13.20
2022-09-16T04:45:02.565Z,13.20
2022-09-16T04:47:30.643Z,13.20
2022-09-16T04:49:58.759Z,13.20
2022-09-16T04:52:26.801Z,13.20
2022-09-16T04:54:56.579Z,13.20
2022-09-16T04:57:32.351Z,13.20
2022-09-16T05:00:02.064Z,13.20
2022-09-16T05:02:30.329Z,13.20
2022-09-16T05:04:58.355Z,13.20
2022-09-16T05:07:26.349Z,13.20
2022-09-16T05:09:54.353Z,13.20
2022-09-16T05:12:24.459Z,13.20
2022-09-16T05:14:52.549Z,13.20
2022-09-16T05:17:39.758Z,13.30
2022-09-16T05:20:10.601Z,13.20
2022-09-16T05:22:39.099Z,13.30
2022-09-16T05:25:08.089Z,13.30
2022-09-16T05:27:36.191Z,13.30
2022-09-16T05:30:04.313Z,13.40
2022-09-16T05:32:34.191Z,13.30
2022-09-16T05:35:02.758Z,13.40
2022-09-16T05:37:33.269Z,13.40
2022-09-16T05:40:01.323Z,13.50
2022-09-16T05:42:29.317Z,13.50
2022-09-16T05:44:57.359Z,13.60
2022-09-16T05:47:25.480Z,13.50
2022-09-16T05:49:55.209Z,13.60
2022-09-16T05:52:24.261Z,13.60
2022-09-16T05:54:52.359Z,13.60
2022-09-16T05:57:21.694Z,13.70
2022-09-16T05:59:49.863Z,13.70
2022-09-16T06:02:17.920Z,13.80
2022-09-16T06:04:46.220Z,13.90
2022-09-16T06:07:15.998Z,13.90
2022-09-16T06:09:44.464Z,14.00
2022-09-16T06:12:12.491Z,14.10
2022-09-16T06:14:40.471Z,14.20
2022-09-16T06:17:08.518Z,14.20
2022-09-16T06:19:36.544Z,14.30
2022-09-16T06:22:04.555Z,14.40
2022-09-16T06:24:33.926Z,14.40
2022-09-16T06:27:04.831Z,14.50
2022-09-16T06:29:32.825Z,14.50
2022-09-16T06:32:00.896Z,14.60
2022-09-16T06:34:28.997Z,14.70
2022-09-16T06:36:56.993Z,14.70
2022-09-16T06:39:25.030Z,14.70
2022-09-16T06:41:54.814Z,14.70
2022-09-16T06:44:30.567Z,14.70
2022-09-16T06:47:00.649Z,14.80
2022-09-16T06:49:28.707Z,14.90
2022-09-16T06:51:56.679Z,15.10
2022-09-16T06:54:24.678Z,15.20
2022-09-16T06:56:54.203Z,15.20
2022-09-16T07:02:08.034Z,15.30
2022-09-16T07:04:37.073Z,15.30
2022-09-16T07:07:09.507Z,15.30
2022-09-16T07:09:38.196Z,15.30
2022-09-16T07:12:08.167Z,15.20
2022-09-16T07:14:36.155Z,15.20
2022-09-16T07:17:04.593Z,15.20
2022-09-16T07:19:32.651Z,15.20
2022-09-16T07:22:00.635Z,15.30
2022-09-16T07:24:28.979Z,15.40
2022-09-16T07:26:59.261Z,15.40
2022-09-16T07:29:28.753Z,15.40
2022-09-16T07:31:57.708Z,15.50
2022-09-16T07:34:25.701Z,15.40
2022-09-16T07:36:54.031Z,15.30
2022-09-16T07:39:22.404Z,15.40
2022-09-16T07:41:53.889Z,15.40
2022-09-16T07:44:22.651Z,15.40
2022-09-16T07:46:51.997Z,15.40
2022-09-16T07:49:22.993Z,15.50
2022-09-16T07:51:51.068Z,15.50
2022-09-16T07:54:21.525Z,15.60
2022-09-16T07:56:50.323Z,15.80
2022-09-16T07:59:19.915Z,15.90
2022-09-16T08:01:49.696Z,15.90
2022-09-16T08:04:20.424Z,16.00
2022-09-16T08:06:49.289Z,15.90
2022-09-16T08:12:08.043Z,16.10
2022-09-16T08:14:36.427Z,16.20
2022-09-16T08:17:04.877Z,16.40
2022-09-16T08:19:34.630Z,16.40
2022-09-16T08:22:02.646Z,16.50
2022-09-16T08:24:30.719Z,16.80
2022-09-16T08:26:58.819Z,18.00
2022-09-16T08:29:27.315Z,19.60
2022-09-16T08:31:55.460Z,21.00
2022-09-16T08:34:23.750Z,22.50
2022-09-16T08:36:55.663Z,23.80
2022-09-16T08:39:23.699Z,24.50
2022-09-16T08:42:17.071Z,25.40
2022-09-16T08:44:51.837Z,25.70
2022-09-16T08:47:31.306Z,26.10
2022-09-16T08:50:02.383Z,26.10
2022-09-16T08:52:33.839Z,25.80
2022-09-16T08:55:07.026Z,25.50
2022-09-16T08:57:40.174Z,25.00
2022-09-16T09:00:15.252Z,24.70
2022-09-16T09:02:52.636Z,24.70
2022-09-16T09:05:28.802Z,24.60
2022-09-16T09:08:16.021Z,24.40
2022-09-16T09:10:49.928Z,24.30
2022-09-16T09:13:39.833Z,24.20
2022-09-16T09:16:17.693Z,24.30
2022-09-16T09:18:56.351Z,24.50
2022-09-16T09:21:36.317Z,24.80
2022-09-16T09:24:24.055Z,24.80
2022-09-16T09:27:00.977Z,24.80
2022-09-16T09:29:41.192Z,24.50
2022-09-16T09:32:20.148Z,24.30
2022-09-16T09:35:01.687Z,24.20
2022-09-16T09:37:45.216Z,23.90
2022-09-16T09:40:19.517Z,23.70
2022-09-16T09:42:53.605Z,23.70
2022-09-16T09:45:29.063Z,23.40
2022-09-16T09:48:02.228Z,23.20
2022-09-16T09:50:34.803Z,23.30
2022-09-16T09:53:10.444Z,23.40
2022-09-16T09:55:41.585Z,23.50
2022-09-16T09:58:29.522Z,23.40
2022-09-16T10:00:59.826Z,22.90
2022-09-16T10:03:29.539Z,22.40
2022-09-16T10:05:57.812Z,22.30
2022-09-16T10:08:28.662Z,22.40
2022-09-16T10:11:00.833Z,22.40
2022-09-16T10:13:31.125Z,22.20
2022-09-16T10:16:10.743Z,22.00
2022-09-16T10:18:39.332Z,21.90
2022-09-16T10:21:09.328Z,21.70
2022-09-16T10:23:39.392Z,21.60
2022-09-16T10:26:23.802Z,21.40
2022-09-16T10:28:57.639Z,21.10
2022-09-16T10:31:32.021Z,21.00
2022-09-16T10:34:03.853Z,21.00
2022-09-16T10:36:35.691Z,21.00
2022-09-16T10:39:05.656Z,20.80
2022-09-16T10:41:42.243Z,20.60
2022-09-16T10:44:17.892Z,20.40
2022-09-16T10:46:53.609Z,20.00
2022-09-16T10:49:26.093Z,19.80
2022-09-16T10:51:55.065Z,19.60
2022-09-16T10:54:28.349Z,19.50
2022-09-16T10:56:57.737Z,19.50
2022-09-16T10:59:25.820Z,19.50
2022-09-16T11:02:04.570Z,19.70
2022-09-16T11:04:54.565Z,19.90
2022-09-16T11:07:37.824Z,20.20
2022-09-16T11:10:20.465Z,20.30
2022-09-16T11:13:12.527Z,20.50
2022-09-16T11:15:52.374Z,20.60
2022-09-16T11:18:33.780Z,20.50
2022-09-16T11:21:21.350Z,20.40
2022-09-16T11:24:18.778Z,20.50
2022-09-16T11:26:55.821Z,20.80
2022-09-16T11:29:46.739Z,21.00
2022-09-16T11:32:22.089Z,21.40
2022-09-16T11:35:05.548Z,21.60
2022-09-16T11:37:43.110Z,21.80
2022-09-16T11:40:25.033Z,22.10
2022-09-16T11:43:02.735Z,22.20
2022-09-16T11:45:42.386Z,22.20
2022-09-16T11:48:44.330Z,22.30
2022-09-16T11:51:27.200Z,22.40
2022-09-16T11:54:10.339Z,22.60
2022-09-16T11:56:43.389Z,22.70
2022-09-16T11:59:19.489Z,22.80
2022-09-16T12:01:56.225Z,22.80
2022-09-16T12:04:30.025Z,22.80
2022-09-16T12:07:04.817Z,22.80
2022-09-16T12:09:39.287Z,22.70
2022-09-16T12:12:14.254Z,22.50
2022-09-16T12:14:47.616Z,22.50
2022-09-16T12:17:21.270Z,22.40
2022-09-16T12:19:53.615Z,22.50
2022-09-16T12:22:27.085Z,22.60
2022-09-16T12:25:01.821Z,22.70
2022-09-16T12:27:39.257Z,22.70
2022-09-16T12:30:16.148Z,22.70
2022-09-16T12:32:55.974Z,22.70
2022-09-16T12:35:29.439Z,22.80
2022-09-16T12:37:58.803Z,22.70
2022-09-16T12:40:29.120Z,22.70
2022-09-16T12:43:17.777Z,22.80
2022-09-16T12:45:59.794Z,22.80
2022-09-16T12:49:05.031Z,22.80
2022-09-16T12:52:10.802Z,22.60
2022-09-16T12:55:10.917Z,22.40
2022-09-16T12:57:52.230Z,22.40
2022-09-16T13:00:22.436Z,22.30
2022-09-16T13:02:53.748Z,22.20
2022-09-16T13:05:33.181Z,22.00
2022-09-16T13:08:05.515Z,21.90
2022-09-16T13:13:32.109Z,21.60
2022-09-16T13:16:02.748Z,21.60
2022-09-16T13:18:43.817Z,21.50
2022-09-16T13:21:26.368Z,21.30
2022-09-16T13:24:02.872Z,21.10
2022-09-16T13:26:41.090Z,21.00
2022-09-16T13:29:44.407Z,20.90
2022-09-16T13:32:38.914Z,20.90
2022-09-16T13:35:24.443Z,20.80
2022-09-16T13:37:55.593Z,20.60
2022-09-16T13:40:25.264Z,20.50
2022-09-16T13:43:04.438Z,20.60
2022-09-16T13:45:35.136Z,20.70
2022-09-16T13:48:12.987Z,20.70
2022-09-16T13:50:44.384Z,20.60
2022-09-16T13:53:22.267Z,20.50
2022-09-16T13:55:52.229Z,20.40
2022-09-16T13:58:28.418Z,20.20
2022-09-16T14:01:10.873Z,20.20
2022-09-16T14:03:51.928Z,20.10
2022-09-16T14:06:56.619Z,20.10
2022-09-16T14:09:36.783Z,20.00
2022-09-16T14:12:14.568Z,20.00
2022-09-16T14:14:47.455Z,19.90
2022-09-16T14:17:20.520Z,19.90
2022-09-16T14:19:51.176Z,19.80
2022-09-16T14:22:21.780Z,19.90
2022-09-16T14:25:00.633Z,19.90
2022-09-16T14:27:39.268Z,20.00
2022-09-16T14:30:17.018Z,19.90
2022-09-16T14:32:47.035Z,19.80
2022-09-16T14:35:19.803Z,19.60
2022-09-16T14:37:53.364Z,19.50
2022-09-16T14:40:25.294Z,19.60
2022-09-16T14:42:54.931Z,19.50
2022-09-16T14:45:23.265Z,19.50
2022-09-16T14:47:54.444Z,19.50
2022-09-16T14:50:26.148Z,19.50
2022-09-16T14:52:55.970Z,19.40
2022-09-16T14:55:31.203Z,19.40
2022-09-16T14:58:00.055Z,19.50
2022-09-16T15:00:33.673Z,19.50
2022-09-16T15:03:06.281Z,19.40
2022-09-16T15:05:36.221Z,19.50
2022-09-16T15:08:14.152Z,19.40
2022-09-16T15:10:52.480Z,19.30
2022-09-16T15:13:28.006Z,19.20
2022-09-16T15:16:01.450Z,19.00
2022-09-16T15:18:34.641Z,18.90
2022-09-16T15:21:08.412Z,18.80
2022-09-16T15:23:39.891Z,18.70
2022-09-16T15:26:17.191Z,18.70
2022-09-16T15:28:57.365Z,18.60
2022-09-16T15:31:32.359Z,18.70
2022-09-16T15:34:02.532Z,18.70
2022-09-16T15:36:36.854Z,18.70
2022-09-16T15:39:05.307Z,18.70
2022-09-16T15:41:35.109Z,18.70
2022-09-16T15:44:10.072Z,18.60
2022-09-16T15:46:38.579Z,18.50
2022-09-16T15:49:14.616Z,18.50
2022-09-16T15:51:48.592Z,18.40
2022-09-16T15:54:22.076Z,18.30
2022-09-16T15:56:58.037Z,18.20
2022-09-16T15:59:31.315Z,18.10
2022-09-16T16:02:02.543Z,18.00
2022-09-16T16:04:34.806Z,18.00
2022-09-16T16:07:04.486Z,17.90
2022-09-16T16:09:42.553Z,17.80
2022-09-16T16:12:14.348Z,17.70
2022-09-16T16:14:42.508Z,17.60
2022-09-16T16:17:14.618Z,17.50
2022-09-16T16:19:43.711Z,17.60
2022-09-16T16:22:15.988Z,17.50
2022-09-16T16:24:44.162Z,17.50
2022-09-16T16:27:19.590Z,17.40
2022-09-16T16:29:47.642Z,17.40
2022-09-16T16:32:17.062Z,17.40
2022-09-16T16:34:47.350Z,17.30
2022-09-16T16:37:40.387Z,17.20
2022-09-16T16:40:06.036Z,17.10
2022-09-16T16:42:36.098Z,17.10
2022-09-16T16:45:04.346Z,17.00
2022-09-16T16:47:32.408Z,16.90
2022-09-16T16:50:01.673Z,16.90
2022-09-16T16:52:29.910Z,16.80
2022-09-16T16:54:57.966Z,16.70
2022-09-16T16:57:26.106Z,16.70
2022-09-16T16:59:55.464Z,16.70
2022-09-16T17:02:23.719Z,16.60
2022-09-16T17:04:51.965Z,16.50
2022-09-16T17:07:28.092Z,16.40
2022-09-16T17:09:57.313Z,16.30
2022-09-16T17:12:25.646Z,16.30
2022-09-16T17:14:55.043Z,16.30
2022-09-16T17:17:26.485Z,16.20
2022-09-16T17:19:56.987Z,16.10
2022-09-16T17:22:25.012Z,16.10
2022-09-16T17:24:53.082Z,16.10
2022-09-16T17:27:21.973Z,16.00
2022-09-16T17:29:50.036Z,15.90
2022-09-16T17:32:19.408Z,15.90
2022-09-16T17:34:47.473Z,15.90
2022-09-16T17:37:17.142Z,15.80
2022-09-16T17:39:45.238Z,15.80
2022-09-16T17:42:13.272Z,15.70
2022-09-16T17:44:41.439Z,15.70
2022-09-16T17:47:10.275Z,15.60
2022-09-16T17:49:39.611Z,15.60
2022-09-16T17:52:07.647Z,15.60
2022-09-16T17:54:38.183Z,15.60
2022-09-16T17:57:06.247Z,15.60
2022-09-16T17:59:34.235Z,15.60
2022-09-16T18:02:02.245Z,15.50
2022-09-16T18:04:31.232Z,15.50
2022-09-16T18:07:00.648Z,15.50
2022-09-16T18:09:28.728Z,15.50
2022-09-16T18:11:58.544Z,15.40
2022-09-16T18:14:26.876Z,15.30
2022-09-16T18:16:55.209Z,15.30
2022-09-16T18:19:23.282Z,15.30
2022-09-16T18:21:51.682Z,15.30
2022-09-16T18:24:21.402Z,15.30
2022-09-16T18:26:49.612Z,15.30
2022-09-16T18:29:17.746Z,15.20
2022-09-16T18:31:47.835Z,15.20
2022-09-16T18:34:17.779Z,15.20
2022-09-16T18:36:46.304Z,15.10
2022-09-16T18:39:16.621Z,15.10
2022-09-16T18:41:47.144Z,15.10
2022-09-16T18:44:17.524Z,15.10
2022-09-16T18:46:45.651Z,15.00
2022-09-16T18:49:16.228Z,15.00
2022-09-16T18:51:50.941Z,15.00
2022-09-16T18:54:24.986Z,15.00
2022-09-16T18:56:55.918Z,14.90
2022-09-16T18:59:28.556Z,14.90
2022-09-16T19:02:01.460Z,14.90
2022-09-16T19:04:31.498Z,14.90
2022-09-16T19:07:07.230Z,14.90
2022-09-16T19:09:37.134Z,14.90
2022-09-16T19:12:07.940Z,14.80
2022-09-16T19:14:36.214Z,14.70
2022-09-16T19:17:05.065Z,14.70
2022-09-16T19:19:35.762Z,14.60
2022-09-16T19:22:06.296Z,14.60
2022-09-16T19:24:34.904Z,14.60
2022-09-16T19:27:07.164Z,14.50
2022-09-16T19:29:37.782Z,14.50
2022-09-16T19:32:06.180Z,14.50
2022-09-16T19:34:34.318Z,14.40
2022-09-16T19:37:02.406Z,14.40
2022-09-16T19:39:30.505Z,14.30
2022-09-16T19:42:03.203Z,14.30
2022-09-16T19:44:34.841Z,14.30
2022-09-16T19:47:03.307Z,14.20
2022-09-16T19:49:31.294Z,14.20
2022-09-16T19:52:01.696Z,14.20
2022-09-16T19:54:29.688Z,14.20
2022-09-16T19:56:57.668Z,14.10
2022-09-16T19:59:25.738Z,14.10
2022-09-16T20:01:55.175Z,14.10
2022-09-16T20:04:23.320Z,14.10
2022-09-16T20:06:51.494Z,14.10
2022-09-16T20:09:20.316Z,14.10
2022-09-16T20:11:49.834Z,14.10
2022-09-16T20:14:20.372Z,14.10
2022-09-16T20:16:49.559Z,14.00
2022-09-16T20:19:20.472Z,14.00
2022-09-16T20:21:49.081Z,13.90
2022-09-16T20:24:19.166Z,13.90
2022-09-16T20:26:48.201Z,13.90
2022-09-16T20:29:17.366Z,13.90
2022-09-16T20:31:46.138Z,13.80
2022-09-16T20:34:16.178Z,13.80
2022-09-16T20:36:47.048Z,13.80
2022-09-16T20:39:15.833Z,13.80
2022-09-16T20:41:45.714Z,13.70
2022-09-16T20:44:15.685Z,13.60
2022-09-16T20:46:44.065Z,13.60
2022-09-16T20:49:16.054Z,13.60
2022-09-16T20:51:45.930Z,13.60
2022-09-16T20:54:15.648Z,13.50
2022-09-16T20:56:45.471Z,13.50
2022-09-16T20:59:15.237Z,13.50
2022-09-16T21:01:43.794Z,13.40
2022-09-16T21:04:14.209Z,13.40
2022-09-16T21:06:46.548Z,13.40
2022-09-16T21:09:15.888Z,13.40
2022-09-16T21:11:45.477Z,13.40
2022-09-16T21:14:16.224Z,13.40
2022-09-16T21:16:46.051Z,13.30
2022-09-16T21:19:15.047Z,13.30
2022-09-16T21:21:47.582Z,13.30
2022-09-16T21:24:16.448Z,13.30
2022-09-16T21:26:45.481Z,13.20
2022-09-16T21:29:15.370Z,13.20
2022-09-16T21:31:44.275Z,13.20
2022-09-16T21:34:14.986Z,13.20
2022-09-16T21:36:47.678Z,13.10
2022-09-16T21:39:16.965Z,13.10
2022-09-16T21:41:46.099Z,13.00
2022-09-16T21:44:15.030Z,13.00
2022-09-16T21:46:45.282Z,13.00
2022-09-16T21:49:22.825Z,13.00
2022-09-16T21:51:53.807Z,12.90
2022-09-16T21:54:22.275Z,12.90
2022-09-16T21:56:50.991Z,12.80
2022-09-16T21:59:20.398Z,12.80
2022-09-16T22:01:49.621Z,12.80
2022-09-16T22:04:20.293Z,12.80
2022-09-16T22:06:49.342Z,12.80
2022-09-16T22:09:18.828Z,12.80
2022-09-16T22:11:49.125Z,12.80
2022-09-16T22:14:19.067Z,12.80
2022-09-16T22:16:47.116Z,12.80
2022-09-16T22:19:17.553Z,12.80
2022-09-16T22:21:47.992Z,12.80
2022-09-16T22:24:21.599Z,12.70
2022-09-16T22:26:50.738Z,12.80
2022-09-16T22:29:21.779Z,12.70
2022-09-16T22:31:50.085Z,12.70
2022-09-16T22:34:18.439Z,12.60
2022-09-16T22:36:46.584Z,12.60
2022-09-16T22:39:16.459Z,12.60
2022-09-16T22:41:45.816Z,12.60
2022-09-16T22:44:14.716Z,12.70
2022-09-16T22:46:44.557Z,12.60
2022-09-16T22:49:13.230Z,12.60
2022-09-16T22:51:41.323Z,12.60
2022-09-16T22:54:11.958Z,12.60
2022-09-16T22:56:39.949Z,12.60
2022-09-16T22:59:14.265Z,12.50
2022-09-16T23:01:42.316Z,12.50
2022-09-16T23:04:11.504Z,12.50
2022-09-16T23:06:41.197Z,12.50
2022-09-16T23:09:10.106Z,12.50
2022-09-16T23:11:38.186Z,12.50
2022-09-16T23:14:14.000Z,12.40
2022-09-16T23:16:42.068Z,12.40
2022-09-16T23:19:12.186Z,12.30
2022-09-16T23:21:40.907Z,12.30
2022-09-16T23:24:10.587Z,12.30
2022-09-16T23:26:40.072Z,12.20
2022-09-16T23:29:11.314Z,12.20
2022-09-16T23:31:40.898Z,12.20
2022-09-16T23:34:12.344Z,12.20
2022-09-16T23:36:41.593Z,12.20
2022-09-16T23:39:13.290Z,12.20
2022-09-16T23:41:42.346Z,12.20
2022-09-16T23:44:14.003Z,12.20
2022-09-16T23:46:42.433Z,12.20
2022-09-16T23:49:10.909Z,12.20
2022-09-16T23:51:38.993Z,12.20
2022-09-16T23:54:07.069Z,12.20
2022-09-16T23:56:35.095Z,12.10
2022-09-16T23:59:03.119Z,12.10
